createdAt,value
2022-11-08T00:00:05.817Z,11.90
2022-11-08T00:02:32.677Z,11.80
2022-11-08T00:05:18.278Z,11.70
2022-11-08T00:08:03.663Z,11.60
2022-11-08T00:10:49.197Z,11.50
2022-11-08T00:13:34.813Z,11.50
2022-11-08T00:16:01.664Z,11.60
2022-11-08T00:18:28.271Z,11.60
2022-11-08T00:20:54.917Z,11.50
2022-11-08T00:23:21.559Z,11.40
2022-11-08T00:25:54.331Z,11.40
2022-11-08T00:28:21.176Z,11.30
2022-11-08T00:30:47.719Z,11.30
2022-11-08T00:33:14.272Z,11.30
2022-11-08T00:35:40.925Z,11.30
2022-11-08T00:38:07.478Z,11.30
2022-11-08T00:40:34.764Z,11.10
2022-11-08T00:43:01.492Z,11.10
2022-11-08T00:45:28.062Z,11.10
2022-11-08T00:47:54.923Z,11.10
2022-11-08T00:50:21.526Z,11.00
2022-11-08T00:52:48.100Z,11.00
2022-11-08T00:55:14.947Z,11.00
2022-11-08T00:57:58.504Z,10.90
2022-11-08T01:00:26.564Z,11.00
2022-11-08T01:03:13.119Z,10.90
2022-11-08T01:05:40.044Z,10.90
2022-11-08T01:08:06.685Z,10.90
2022-11-08T01:10:33.249Z,10.90
2022-11-08T01:12:59.919Z,10.80
2022-11-08T01:15:26.737Z,10.80
2022-11-08T01:17:53.624Z,10.70
2022-11-08T01:20:20.345Z,10.70
2022-11-08T01:22:46.969Z,10.60
2022-11-08T01:25:13.539Z,10.60
2022-11-08T01:27:40.133Z,10.60
2022-11-08T01:30:07.476Z,10.50
2022-11-08T01:32:34.022Z,10.50
2022-11-08T01:35:00.658Z,10.40
2022-11-08T01:37:27.261Z,10.40
2022-11-08T01:39:54.055Z,10.30
2022-11-08T01:42:31.716Z,10.30
2022-11-08T01:45:07.735Z,10.30
2022-11-08T01:47:35.071Z,10.30
2022-11-08T01:50:12.467Z,10.30
2022-11-08T01:52:46.165Z,10.20
2022-11-08T01:55:28.250Z,10.10
2022-11-08T01:58:05.832Z,10.20
2022-11-08T02:00:32.686Z,10.10
2022-11-08T02:03:05.020Z,10.00
2022-11-08T02:05:31.865Z,10.00
2022-11-08T02:08:20.657Z,9.90
2022-11-08T02:10:51.242Z,9.80
2022-11-08T02:13:23.649Z,9.70
2022-11-08T02:15:50.338Z,9.70
2022-11-08T02:18:19.682Z,9.70
2022-11-08T02:21:04.618Z,9.70
2022-11-08T02:23:51.575Z,9.70
2022-11-08T02:26:24.385Z,9.80
2022-11-08T02:28:51.461Z,9.80
2022-11-08T02:31:19.177Z,9.80
2022-11-08T02:33:46.948Z,9.80
2022-11-08T02:36:17.771Z,9.80
2022-11-08T02:38:55.099Z,9.80
2022-11-08T02:41:21.839Z,9.90
2022-11-08T02:43:48.566Z,9.80
2022-11-08T02:46:15.187Z,9.90
2022-11-08T02:48:41.807Z,9.90
2022-11-08T02:51:08.623Z,9.90
2022-11-08T02:53:35.716Z,9.80
2022-11-08T02:56:02.268Z,9.80
2022-11-08T02:58:29.003Z,9.90
2022-11-08T03:00:55.723Z,9.80
2022-11-08T03:03:22.326Z,9.80
2022-11-08T03:05:49.008Z,9.80
2022-11-08T03:08:16.036Z,9.80
2022-11-08T03:10:43.063Z,9.80
2022-11-08T03:13:09.661Z,9.80
2022-11-08T03:15:36.486Z,9.80
2022-11-08T03:18:03.355Z,9.70
2022-11-08T03:20:33.166Z,9.60
2022-11-08T03:23:02.088Z,9.60
2022-11-08T03:25:28.804Z,9.60
2022-11-08T03:27:55.801Z,9.70
2022-11-08T03:30:22.658Z,9.60
2022-11-08T03:32:52.390Z,9.50
2022-11-08T03:35:18.936Z,9.50
2022-11-08T03:37:53.249Z,9.50
2022-11-08T03:40:20.372Z,9.40
2022-11-08T03:42:47.262Z,9.40
2022-11-08T03:45:15.148Z,9.30
2022-11-08T03:47:46.997Z,9.30
2022-11-08T03:50:15.800Z,9.30
2022-11-08T03:52:50.540Z,9.20
2022-11-08T03:55:18.879Z,9.10
2022-11-08T03:57:47.231Z,9.20
2022-11-08T04:00:15.678Z,9.10
2022-11-08T04:02:42.539Z,9.10
2022-11-08T04:05:11.225Z,9.10
2022-11-08T04:07:38.446Z,9.10
2022-11-08T04:10:06.842Z,9.10
2022-11-08T04:12:52.014Z,9.00
2022-11-08T04:15:21.616Z,9.00
2022-11-08T04:18:08.640Z,9.00
2022-11-08T04:21:01.166Z,9.00
2022-11-08T04:23:28.948Z,8.90
2022-11-08T04:25:57.704Z,8.90
2022-11-08T04:28:26.107Z,8.90
2022-11-08T04:31:07.450Z,8.80
2022-11-08T04:33:34.237Z,8.80
2022-11-08T04:36:10.587Z,8.80
2022-11-08T04:38:37.312Z,8.80
2022-11-08T04:41:12.462Z,8.90
2022-11-08T04:43:39.384Z,8.90
2022-11-08T04:46:09.098Z,8.80
2022-11-08T04:48:36.943Z,8.80
2022-11-08T04:51:26.748Z,8.80
2022-11-08T04:53:54.499Z,8.80
2022-11-08T04:56:22.138Z,8.90
2022-11-08T04:58:53.617Z,9.00
2022-11-08T05:01:23.194Z,9.00
2022-11-08T05:03:51.678Z,8.90
2022-11-08T05:06:24.187Z,9.00
2022-11-08T05:08:51.413Z,9.00
2022-11-08T05:11:20.916Z,9.00
2022-11-08T05:13:48.575Z,8.90
2022-11-08T05:16:21.464Z,8.90
2022-11-08T05:18:48.519Z,8.90
2022-11-08T05:21:36.133Z,8.80
2022-11-08T05:24:07.425Z,8.80
2022-11-08T05:26:35.699Z,8.80
2022-11-08T05:29:02.550Z,8.80
2022-11-08T05:31:29.132Z,8.80
2022-11-08T05:33:55.836Z,8.80
2022-11-08T05:36:22.459Z,8.70
2022-11-08T05:38:49.102Z,8.70
2022-11-08T05:41:19.477Z,8.70
2022-11-08T05:43:51.388Z,8.70
2022-11-08T05:46:19.190Z,8.70
2022-11-08T05:48:46.903Z,8.70
2022-11-08T05:51:15.435Z,8.80
2022-11-08T05:53:42.470Z,8.90
2022-11-08T05:56:09.700Z,8.90
2022-11-08T05:58:37.148Z,8.90
2022-11-08T06:01:12.998Z,8.90
2022-11-08T06:03:40.026Z,8.90
2022-11-08T06:06:13.339Z,8.90
2022-11-08T06:08:40.604Z,8.90
2022-11-08T06:11:09.762Z,8.80
2022-11-08T06:13:37.183Z,8.80
2022-11-08T06:16:06.143Z,8.80
2022-11-08T06:18:33.804Z,8.80
2022-11-08T06:21:02.060Z,8.80
2022-11-08T06:23:29.232Z,8.80
2022-11-08T06:25:56.217Z,8.80
2022-11-08T06:28:23.900Z,8.70
2022-11-08T06:30:51.368Z,8.70
2022-11-08T06:33:19.025Z,8.70
2022-11-08T06:35:46.610Z,8.70
2022-11-08T06:38:13.255Z,8.80
2022-11-08T06:40:40.394Z,8.80
2022-11-08T06:43:07.407Z,8.80
2022-11-08T06:45:34.008Z,8.80
2022-11-08T06:48:02.475Z,8.80
2022-11-08T06:50:30.489Z,8.90
2022-11-08T06:52:58.825Z,8.80
2022-11-08T06:55:25.592Z,8.90
2022-11-08T06:57:52.426Z,8.90
2022-11-08T07:00:20.121Z,8.90
2022-11-08T07:02:55.546Z,9.00
2022-11-08T07:05:22.952Z,9.00
2022-11-08T07:07:52.164Z,9.00
2022-11-08T07:10:20.861Z,9.00
2022-11-08T07:12:47.726Z,9.00
2022-11-08T07:15:15.038Z,9.00
2022-11-08T07:17:41.693Z,9.00
2022-11-08T07:20:08.977Z,9.00
2022-11-08T07:22:35.591Z,9.00
2022-11-08T07:25:02.179Z,9.00
2022-11-08T07:27:28.869Z,9.00
2022-11-08T07:29:55.452Z,8.90
2022-11-08T07:32:22.026Z,9.00
2022-11-08T07:34:48.583Z,9.10
2022-11-08T07:37:15.303Z,9.10
2022-11-08T07:39:42.146Z,9.10
2022-11-08T07:42:08.702Z,9.20
2022-11-08T07:44:35.469Z,9.20
2022-11-08T07:47:02.046Z,9.30
2022-11-08T07:49:28.615Z,9.40
2022-11-08T07:51:55.226Z,9.40
2022-11-08T07:54:21.935Z,9.50
2022-11-08T07:56:48.514Z,9.50
2022-11-08T07:59:15.299Z,9.60
2022-11-08T08:01:42.295Z,9.70
2022-11-08T08:04:09.419Z,9.80
2022-11-08T08:06:35.978Z,9.90
2022-11-08T08:09:02.645Z,9.90
2022-11-08T08:11:33.486Z,10.00
2022-11-08T08:14:00.430Z,10.10
2022-11-08T08:16:27.061Z,10.10
2022-11-08T08:18:56.699Z,10.20
2022-11-08T08:21:23.642Z,10.20
2022-11-08T08:23:50.229Z,10.30
2022-11-08T08:26:16.863Z,10.40
2022-11-08T08:28:43.489Z,10.40
2022-11-08T08:31:10.099Z,10.50
2022-11-08T08:33:37.887Z,10.60
2022-11-08T08:36:05.351Z,10.60
2022-11-08T08:38:33.716Z,10.70
2022-11-08T08:41:01.473Z,10.80
2022-11-08T08:43:29.054Z,10.90
2022-11-08T08:46:02.758Z,11.00
2022-11-08T08:48:29.897Z,11.10
2022-11-08T08:50:57.222Z,11.20
2022-11-08T08:53:24.001Z,11.30
2022-11-08T08:55:53.576Z,11.30
2022-11-08T08:58:21.065Z,11.40
2022-11-08T09:03:36.043Z,11.60
2022-11-08T09:06:03.235Z,11.70
2022-11-08T09:08:30.587Z,11.80
2022-11-08T09:10:59.255Z,11.80
2022-11-08T09:13:27.851Z,11.90
2022-11-08T09:15:55.269Z,12.00
2022-11-08T09:18:22.373Z,12.10
2022-11-08T09:20:49.004Z,12.20
2022-11-08T09:23:17.543Z,12.20
2022-11-08T09:25:44.536Z,12.40
2022-11-08T09:28:11.289Z,12.40
2022-11-08T09:30:37.910Z,12.50
2022-11-08T09:33:05.266Z,12.60
2022-11-08T09:35:32.035Z,12.60
2022-11-08T09:37:59.055Z,12.60
2022-11-08T09:41:07.229Z,12.70
2022-11-08T09:43:53.338Z,12.80
2022-11-08T09:46:36.106Z,12.90
2022-11-08T09:49:05.648Z,13.00
2022-11-08T09:51:35.617Z,13.00
2022-11-08T09:54:03.607Z,13.10
2022-11-08T09:56:32.206Z,13.30
2022-11-08T09:59:13.616Z,13.30
2022-11-08T10:01:40.886Z,13.30
2022-11-08T10:04:15.411Z,13.40
2022-11-08T10:07:17.195Z,13.50
2022-11-08T10:10:14.717Z,13.60
2022-11-08T10:12:55.340Z,13.60
2022-11-08T10:15:35.175Z,13.70
2022-11-08T10:18:32.136Z,13.90
2022-11-08T10:21:24.794Z,14.00
2022-11-08T10:24:26.575Z,14.10
2022-11-08T10:26:55.352Z,14.20
2022-11-08T10:29:27.080Z,14.30
2022-11-08T10:32:02.128Z,14.50
2022-11-08T10:34:34.567Z,14.70
2022-11-08T10:37:06.563Z,14.80
2022-11-08T10:39:42.312Z,14.90
2022-11-08T10:42:16.616Z,15.00
2022-11-08T10:44:44.050Z,15.10
2022-11-08T10:47:27.315Z,15.20
2022-11-08T10:49:57.214Z,15.30
2022-11-08T10:52:39.359Z,15.30
2022-11-08T10:55:08.705Z,15.40
2022-11-08T10:57:43.641Z,15.40
2022-11-08T11:00:22.523Z,15.40
2022-11-08T11:03:14.872Z,15.50
2022-11-08T11:05:43.566Z,15.50
2022-11-08T11:08:10.124Z,15.60
2022-11-08T11:10:39.316Z,15.70
2022-11-08T11:13:18.581Z,15.80
2022-11-08T11:15:55.812Z,16.00
2022-11-08T11:18:31.718Z,16.20
2022-11-08T11:21:03.158Z,16.40
2022-11-08T11:23:42.622Z,16.50
2022-11-08T11:26:29.743Z,16.60
2022-11-08T11:29:05.692Z,16.70
2022-11-08T11:31:40.142Z,16.80
2022-11-08T11:34:18.829Z,16.60
2022-11-08T11:37:05.512Z,16.80
2022-11-08T11:39:39.209Z,16.90
2022-11-08T11:42:44.358Z,17.10
2022-11-08T11:45:40.378Z,17.40
2022-11-08T11:48:39.777Z,17.60
2022-11-08T11:51:10.630Z,17.70
2022-11-08T11:53:39.140Z,18.00
2022-11-08T11:56:09.042Z,18.30
2022-11-08T11:58:41.525Z,18.50
2022-11-08T12:01:27.659Z,18.70
2022-11-08T12:04:01.750Z,18.80
2022-11-08T12:06:31.214Z,18.80
2022-11-08T12:09:19.575Z,18.80
2022-11-08T12:12:09.326Z,18.90
2022-11-08T12:15:30.673Z,18.90
2022-11-08T12:18:42.856Z,19.00
2022-11-08T12:21:46.849Z,18.80
2022-11-08T12:24:32.957Z,19.00
2022-11-08T12:27:35.315Z,19.20
2022-11-08T12:30:17.636Z,19.30
2022-11-08T12:33:21.373Z,19.50
2022-11-08T12:35:58.760Z,19.50
2022-11-08T12:38:37.744Z,19.50
2022-11-08T12:41:18.430Z,19.40
2022-11-08T12:44:10.620Z,19.60
2022-11-08T12:47:08.985Z,19.50
2022-11-08T12:49:41.987Z,19.10
2022-11-08T12:52:27.467Z,18.70
2022-11-08T12:54:58.927Z,18.50
2022-11-08T12:57:28.180Z,18.40
2022-11-08T13:00:16.446Z,18.20
2022-11-08T13:02:49.457Z,18.10
2022-11-08T13:05:31.894Z,18.20
2022-11-08T13:08:23.467Z,18.40
2022-11-08T13:11:05.751Z,18.60
2022-11-08T13:13:55.793Z,18.70
2022-11-08T13:16:25.266Z,18.60
2022-11-08T13:18:59.543Z,18.30
2022-11-08T13:21:26.090Z,18.20
2022-11-08T13:23:54.020Z,18.40
2022-11-08T13:26:23.502Z,18.50
2022-11-08T13:28:51.154Z,18.40
2022-11-08T13:31:17.693Z,18.30
2022-11-08T13:34:01.777Z,18.10
2022-11-08T13:36:38.186Z,17.90
2022-11-08T13:39:38.177Z,17.90
2022-11-08T13:42:17.039Z,18.10
2022-11-08T13:44:55.482Z,18.00
2022-11-08T13:47:34.447Z,17.90
2022-11-08T13:50:33.940Z,17.70
2022-11-08T13:53:18.618Z,17.60
2022-11-08T13:56:17.176Z,17.50
2022-11-08T13:58:45.576Z,17.20
2022-11-08T14:01:18.368Z,16.90
2022-11-08T14:03:48.130Z,16.80
2022-11-08T14:06:32.511Z,16.60
2022-11-08T14:09:08.651Z,16.40
2022-11-08T14:11:44.513Z,16.20
2022-11-08T14:14:36.534Z,16.10
2022-11-08T14:17:24.241Z,16.00
2022-11-08T14:19:52.210Z,15.90
2022-11-08T14:22:25.492Z,15.80
2022-11-08T14:24:54.188Z,15.70
2022-11-08T14:27:38.897Z,15.60
2022-11-08T14:30:14.784Z,15.60
2022-11-08T14:32:41.754Z,15.50
2022-11-08T14:35:26.732Z,15.50
2022-11-08T14:37:53.804Z,15.50
2022-11-08T14:40:27.337Z,15.70
2022-11-08T14:42:55.502Z,15.70
2022-11-08T14:45:26.772Z,15.60
2022-11-08T14:48:04.440Z,15.50
2022-11-08T14:50:33.612Z,15.30
2022-11-08T14:53:26.167Z,15.20
2022-11-08T14:56:15.620Z,15.10
2022-11-08T14:58:43.192Z,14.90
2022-11-08T15:01:11.414Z,14.80
2022-11-08T15:03:43.684Z,14.60
2022-11-08T15:06:14.181Z,14.50
2022-11-08T15:08:52.821Z,14.40
2022-11-08T15:11:30.715Z,14.40
2022-11-08T15:14:09.438Z,14.30
2022-11-08T15:16:40.556Z,14.20
2022-11-08T15:19:31.769Z,14.10
2022-11-08T15:22:22.024Z,14.00
2022-11-08T15:24:59.347Z,13.90
2022-11-08T15:27:27.244Z,13.80
2022-11-08T15:30:06.846Z,13.70
2022-11-08T15:32:39.586Z,13.60
2022-11-08T15:35:19.179Z,13.50
2022-11-08T15:37:46.783Z,13.50
2022-11-08T15:40:20.056Z,13.40
2022-11-08T15:42:49.425Z,13.30
2022-11-08T15:45:16.061Z,13.30
2022-11-08T15:47:42.724Z,13.20
2022-11-08T15:50:16.693Z,13.10
2022-11-08T15:52:44.288Z,13.10
2022-11-08T15:55:20.178Z,13.10
2022-11-08T15:57:48.201Z,13.00
2022-11-08T16:00:22.368Z,13.00
2022-11-08T16:02:49.087Z,12.90
2022-11-08T16:05:18.734Z,12.90
2022-11-08T16:07:46.005Z,12.90
2022-11-08T16:10:15.078Z,12.90
2022-11-08T16:12:44.714Z,13.00
2022-11-08T16:15:21.363Z,13.00
2022-11-08T16:17:48.096Z,13.00
2022-11-08T16:20:29.840Z,13.00
2022-11-08T16:22:58.091Z,13.00
2022-11-08T16:25:26.491Z,13.00
2022-11-08T16:27:58.792Z,13.00
2022-11-08T16:30:26.135Z,13.00
2022-11-08T16:32:53.219Z,13.00
2022-11-08T16:35:19.822Z,13.00
2022-11-08T16:37:47.107Z,13.00
2022-11-08T16:40:19.854Z,13.00
2022-11-08T16:42:48.318Z,13.00
2022-11-08T16:45:16.556Z,13.00
2022-11-08T16:47:48.693Z,13.00
2022-11-08T16:50:29.380Z,13.10
2022-11-08T16:52:56.104Z,13.10
2022-11-08T16:55:22.869Z,13.10
2022-11-08T16:57:49.550Z,13.00
2022-11-08T17:00:19.592Z,13.00
2022-11-08T17:02:49.992Z,13.00
2022-11-08T17:05:21.924Z,13.00
2022-11-08T17:07:51.056Z,13.00
2022-11-08T17:10:23.513Z,13.00
2022-11-08T17:12:50.868Z,13.10
2022-11-08T17:15:20.420Z,13.10
2022-11-08T17:17:47.610Z,13.10
2022-11-08T17:20:16.184Z,13.10
2022-11-08T17:22:44.554Z,13.00
2022-11-08T17:25:14.673Z,13.00
2022-11-08T17:27:42.159Z,13.10
2022-11-08T17:30:10.165Z,13.20
2022-11-08T17:32:37.075Z,13.20
2022-11-08T17:35:05.443Z,13.20
2022-11-08T17:37:33.187Z,13.30
2022-11-08T17:40:01.160Z,13.30
2022-11-08T17:42:28.360Z,13.30
2022-11-08T17:44:56.947Z,13.30
2022-11-08T17:47:25.009Z,13.30
2022-11-08T17:49:52.243Z,13.20
2022-11-08T17:52:19.996Z,13.20
2022-11-08T17:54:52.646Z,13.30
2022-11-08T17:57:19.599Z,13.30
2022-11-08T17:59:48.107Z,13.30
2022-11-08T18:02:15.405Z,13.30
2022-11-08T18:04:42.109Z,13.40
2022-11-08T18:07:08.836Z,13.30
2022-11-08T18:09:36.032Z,13.30
2022-11-08T18:12:02.765Z,13.30
2022-11-08T18:14:29.376Z,13.30
2022-11-08T18:16:56.604Z,13.30
2022-11-08T18:19:23.629Z,13.30
2022-11-08T18:21:50.434Z,13.30
2022-11-08T18:24:17.266Z,13.30
2022-11-08T18:26:44.152Z,13.20
2022-11-08T18:29:10.905Z,13.20
2022-11-08T18:31:37.535Z,13.20
2022-11-08T18:34:04.576Z,13.10
2022-11-08T18:36:31.363Z,13.20
2022-11-08T18:39:01.693Z,13.20
2022-11-08T18:41:31.727Z,13.20
2022-11-08T18:44:00.096Z,13.20
2022-11-08T18:46:28.794Z,13.10
2022-11-08T18:48:55.428Z,13.10
2022-11-08T18:51:23.590Z,13.00
2022-11-08T18:53:52.575Z,13.00
2022-11-08T18:56:20.126Z,13.00
2022-11-08T18:58:46.912Z,12.90
2022-11-08T19:01:14.732Z,13.00
2022-11-08T19:03:41.607Z,12.90
2022-11-08T19:06:08.947Z,12.90
2022-11-08T19:08:36.797Z,12.80
2022-11-08T19:11:07.802Z,12.90
2022-11-08T19:13:36.222Z,12.90
2022-11-08T19:16:07.367Z,12.80
2022-11-08T19:18:35.036Z,12.80
2022-11-08T19:21:20.080Z,12.80
2022-11-08T19:23:47.761Z,12.80
2022-11-08T19:26:20.162Z,12.70
2022-11-08T19:28:47.611Z,12.60
2022-11-08T19:31:16.488Z,12.70
2022-11-08T19:33:43.059Z,12.60
2022-11-08T19:36:14.367Z,12.70
2022-11-08T19:38:41.549Z,12.60
2022-11-08T19:41:20.222Z,12.60
2022-11-08T19:43:47.811Z,12.60
2022-11-08T19:46:17.202Z,12.60
2022-11-08T19:48:45.690Z,12.60
2022-11-08T19:51:14.929Z,12.50
2022-11-08T19:53:42.107Z,12.60
2022-11-08T19:56:12.385Z,12.50
2022-11-08T19:58:39.144Z,12.50
2022-11-08T20:01:09.737Z,12.50
2022-11-08T20:03:37.019Z,12.50
2022-11-08T20:06:04.233Z,12.50
2022-11-08T20:08:31.480Z,12.40
2022-11-08T20:10:58.707Z,12.40
2022-11-08T20:13:25.890Z,12.30
2022-11-08T20:15:52.905Z,12.30
2022-11-08T20:18:20.171Z,12.30
2022-11-08T20:20:47.289Z,12.40
2022-11-08T20:23:16.007Z,12.30
2022-11-08T20:25:42.944Z,12.30
2022-11-08T20:28:09.610Z,12.30
2022-11-08T20:30:36.358Z,12.20
2022-11-08T20:33:02.993Z,12.10
2022-11-08T20:35:29.647Z,12.10
2022-11-08T20:37:57.037Z,12.10
2022-11-08T20:40:23.626Z,12.10
2022-11-08T20:42:50.233Z,12.10
2022-11-08T20:45:16.915Z,12.10
2022-11-08T20:47:43.509Z,12.00
2022-11-08T20:50:10.668Z,12.00
2022-11-08T20:52:37.377Z,12.10
2022-11-08T20:55:04.180Z,12.00
2022-11-08T20:57:30.732Z,12.00
2022-11-08T20:59:57.658Z,12.00
2022-11-08T21:02:30.267Z,12.00
2022-11-08T21:04:56.861Z,11.90
2022-11-08T21:10:40.924Z,11.90
2022-11-08T21:12:57.430Z,12.00
2022-11-08T21:15:27.043Z,11.90
2022-11-08T21:17:53.863Z,11.90
2022-11-08T21:20:20.497Z,11.90
2022-11-08T21:22:47.097Z,11.80
2022-11-08T21:25:13.767Z,11.80
2022-11-08T21:27:40.427Z,11.80
2022-11-08T21:30:07.764Z,11.80
2022-11-08T21:32:34.354Z,11.80
2022-11-08T21:35:01.033Z,11.80
2022-11-08T21:37:27.637Z,11.80
2022-11-08T21:39:54.270Z,11.80
2022-11-08T21:42:20.931Z,11.80
2022-11-08T21:44:47.504Z,11.70
2022-11-08T21:47:14.130Z,11.80
2022-11-08T21:49:40.760Z,11.70
2022-11-08T21:52:07.358Z,11.70
2022-11-08T21:54:34.134Z,11.70
2022-11-08T21:57:00.770Z,11.70
2022-11-08T21:59:27.420Z,11.70
2022-11-08T22:01:54.126Z,11.70
2022-11-08T22:04:20.792Z,11.70
2022-11-08T22:06:47.959Z,11.70
2022-11-08T22:09:14.742Z,11.70
2022-11-08T22:11:41.879Z,11.70
2022-11-08T22:14:08.570Z,11.80
2022-11-08T22:16:35.136Z,11.70
2022-11-08T22:19:05.999Z,11.70
2022-11-08T22:21:40.510Z,11.70
2022-11-08T22:24:20.203Z,11.60
2022-11-08T22:26:48.151Z,11.70
2022-11-08T22:29:16.479Z,11.70
2022-11-08T22:31:43.276Z,11.70
2022-11-08T22:34:10.665Z,11.80
2022-11-08T22:36:44.083Z,11.70
2022-11-08T22:39:22.579Z,11.70
2022-11-08T22:41:51.263Z,11.70
2022-11-08T22:44:18.816Z,11.70
2022-11-08T22:46:46.800Z,11.70
2022-11-08T22:49:14.252Z,11.70
2022-11-08T22:51:42.005Z,11.70
2022-11-08T22:54:09.300Z,11.70
2022-11-08T22:56:36.338Z,11.70
2022-11-08T22:59:04.036Z,11.70
2022-11-08T23:01:30.712Z,11.70
2022-11-08T23:03:57.324Z,11.80
2022-11-08T23:06:23.952Z,11.80
2022-11-08T23:08:50.925Z,11.80
2022-11-08T23:11:36.027Z,11.70
2022-11-08T23:14:21.417Z,11.70
2022-11-08T23:16:48.128Z,11.70
2022-11-08T23:19:35.878Z,11.70
2022-11-08T23:22:22.832Z,11.70
2022-11-08T23:24:49.601Z,11.70
2022-11-08T23:27:36.686Z,11.70
2022-11-08T23:30:23.590Z,11.70
2022-11-08T23:32:50.895Z,11.70
2022-11-08T23:35:20.015Z,11.70
2022-11-08T23:37:47.087Z,11.70
2022-11-08T23:40:33.814Z,11.70
2022-11-08T23:43:21.979Z,11.80
2022-11-08T23:45:48.969Z,11.70
2022-11-08T23:48:15.605Z,11.80
2022-11-08T23:50:53.361Z,11.80
2022-11-08T23:53:22.082Z,11.80
2022-11-08T23:55:48.951Z,11.70
2022-11-08T23:58:15.586Z,11.70
